sensor_id;sensor_type;location;lat;lon;timestamp;pressure;altitude;pressure_sealevel;temperature;humidity
71109;BME280;59614;51.012;-1.648;2023-02-16T00:01:48;101395.47;;;6.74;100.00
71109;BME280;59614;51.012;-1.648;2023-02-16T00:04:28;101398.97;;;6.76;100.00
71109;BME280;59614;51.012;-1.648;2023-02-16T00:06:54;101404.28;;;6.79;100.00
71109;BME280;59614;51.012;-1.648;2023-02-16T00:09:21;101402.56;;;6.79;100.00
71109;BME280;59614;51.012;-1.648;2023-02-16T00:11:47;101407.94;;;6.90;100.00
71109;BME280;59614;51.012;-1.648;2023-02-16T00:14:36;101410.63;;;6.95;100.00
71109;BME280;59614;51.012;-1.648;2023-02-16T00:17:02;101402.75;;;6.93;100.00
71109;BME280;59614;51.012;-1.648;2023-02-16T00:19:33;101398.41;;;6.95;100.00
71109;BME280;59614;51.012;-1.648;2023-02-16T00:21:59;101402.75;;;6.92;100.00
71109;BME280;59614;51.012;-1.648;2023-02-16T00:24:26;101391.28;;;6.88;100.00
71109;BME280;59614;51.012;-1.648;2023-02-16T00:26:52;101389.63;;;6.93;100.00
71109;BME280;59614;51.012;-1.648;2023-02-16T00:29:27;101380.16;;;7.03;100.00
71109;BME280;59614;51.012;-1.648;2023-02-16T00:31:54;101394.25;;;7.13;100.00
71109;BME280;59614;51.012;-1.648;2023-02-16T00:34:39;101378.50;;;7.11;100.00
71109;BME280;59614;51.012;-1.648;2023-02-16T00:37:07;101378.50;;;7.13;100.00
71109;BME280;59614;51.012;-1.648;2023-02-16T00:39:35;101375.13;;;7.20;100.00
71109;BME280;59614;51.012;-1.648;2023-02-16T00:42:22;101372.56;;;7.25;100.00
71109;BME280;59614;51.012;-1.648;2023-02-16T00:44:51;101375.94;;;7.18;100.00
71109;BME280;59614;51.012;-1.648;2023-02-16T00:47:20;101365.50;;;7.21;100.00
71109;BME280;59614;51.012;-1.648;2023-02-16T00:49:47;101368.13;;;7.21;100.00
71109;BME280;59614;51.012;-1.648;2023-02-16T00:54:53;101353.25;;;7.23;100.00
71109;BME280;59614;51.012;-1.648;2023-02-16T00:57:19;101348.72;;;7.11;100.00
71109;BME280;59614;51.012;-1.648;2023-02-16T00:59:46;101354.03;;;7.14;100.00
71109;BME280;59614;51.012;-1.648;2023-02-16T01:02:12;101355.56;;;7.00;100.00
71109;BME280;59614;51.012;-1.648;2023-02-16T01:04:38;101345.94;;;6.99;100.00
71109;BME280;59614;51.012;-1.648;2023-02-16T01:07:11;101336.34;;;6.99;100.00
71109;BME280;59614;51.012;-1.648;2023-02-16T01:09:55;101339.13;;;7.13;100.00
71109;BME280;59614;51.012;-1.648;2023-02-16T01:12:39;101332.09;;;7.10;100.00
71109;BME280;59614;51.012;-1.648;2023-02-16T01:15:10;101325.16;;;7.16;100.00
71109;BME280;59614;51.012;-1.648;2023-02-16T01:17:37;101325.19;;;7.17;100.00
71109;BME280;59614;51.012;-1.648;2023-02-16T01:20:05;101342.50;;;7.01;100.00
71109;BME280;59614;51.012;-1.648;2023-02-16T01:22:38;101337.41;;;7.14;100.00
71109;BME280;59614;51.012;-1.648;2023-02-16T01:25:03;101329.47;;;7.10;100.00
71109;BME280;59614;51.012;-1.648;2023-02-16T01:27:29;101319.63;;;6.92;100.00
71109;BME280;59614;51.012;-1.648;2023-02-16T01:29:55;101312.78;;;7.04;100.00
71109;BME280;59614;51.012;-1.648;2023-02-16T01:32:21;101311.16;;;7.14;100.00
71109;BME280;59614;51.012;-1.648;2023-02-16T01:34:46;101305.09;;;7.19;100.00
71109;BME280;59614;51.012;-1.648;2023-02-16T01:37:15;101303.94;;;6.95;100.00
71109;BME280;59614;51.012;-1.648;2023-02-16T01:39:40;101306.34;;;6.78;100.00
71109;BME280;59614;51.012;-1.648;2023-02-16T01:42:18;101292.63;;;7.01;100.00
71109;BME280;59614;51.012;-1.648;2023-02-16T01:49:55;101280.47;;;7.08;100.00
71109;BME280;59614;51.012;-1.648;2023-02-16T01:52:37;101276.22;;;7.19;100.00
71109;BME280;59614;51.012;-1.648;2023-02-16T01:55:15;101271.72;;;7.12;100.00
71109;BME280;59614;51.012;-1.648;2023-02-16T01:57:54;101270.72;;;6.98;100.00
71109;BME280;59614;51.012;-1.648;2023-02-16T02:03:19;101256.44;;;6.77;100.00
71109;BME280;59614;51.012;-1.648;2023-02-16T02:06:09;101250.53;;;6.95;100.00
71109;BME280;59614;51.012;-1.648;2023-02-16T02:08:41;101261.19;;;7.06;100.00
71109;BME280;59614;51.012;-1.648;2023-02-16T02:11:12;101256.84;;;7.11;100.00
71109;BME280;59614;51.012;-1.648;2023-02-16T02:14:02;101254.34;;;7.20;100.00
71109;BME280;59614;51.012;-1.648;2023-02-16T02:16:30;101254.22;;;7.08;100.00
71109;BME280;59614;51.012;-1.648;2023-02-16T02:18:55;101258.59;;;7.10;100.00
71109;BME280;59614;51.012;-1.648;2023-02-16T02:21:49;101265.63;;;7.13;100.00
71109;BME280;59614;51.012;-1.648;2023-02-16T02:27:52;101248.97;;;7.11;100.00
71109;BME280;59614;51.012;-1.648;2023-02-16T02:44:20;101243.81;;;7.17;100.00
71109;BME280;59614;51.012;-1.648;2023-02-16T02:46:47;101229.88;;;7.24;100.00
71109;BME280;59614;51.012;-1.648;2023-02-16T02:49:13;101232.56;;;7.32;100.00
71109;BME280;59614;51.012;-1.648;2023-02-16T02:51:39;101220.09;;;7.08;100.00
71109;BME280;59614;51.012;-1.648;2023-02-16T02:54:21;101228.09;;;7.20;100.00
71109;BME280;59614;51.012;-1.648;2023-02-16T03:03:06;101213.25;;;7.27;100.00
71109;BME280;59614;51.012;-1.648;2023-02-16T03:05:35;101204.34;;;7.08;100.00
71109;BME280;59614;51.012;-1.648;2023-02-16T03:08:07;101186.22;;;7.36;100.00
71109;BME280;59614;51.012;-1.648;2023-02-16T03:10:44;101192.19;;;7.22;100.00
71109;BME280;59614;51.012;-1.648;2023-02-16T03:13:53;101185.38;;;7.40;100.00
71109;BME280;59614;51.012;-1.648;2023-02-16T03:16:26;101189.72;;;7.38;100.00
71109;BME280;59614;51.012;-1.648;2023-02-16T03:18:55;101194.25;;;7.54;100.00
71109;BME280;59614;51.012;-1.648;2023-02-16T03:21:40;101200.38;;;7.53;100.00
71109;BME280;59614;51.012;-1.648;2023-02-16T03:24:30;101195.19;;;7.63;100.00
71109;BME280;59614;51.012;-1.648;2023-02-16T03:27:19;101196.75;;;7.39;100.00
71109;BME280;59614;51.012;-1.648;2023-02-16T03:30:05;101199.50;;;7.54;100.00
71109;BME280;59614;51.012;-1.648;2023-02-16T03:32:32;101194.16;;;7.45;100.00
71109;BME280;59614;51.012;-1.648;2023-02-16T03:34:58;101187.22;;;7.50;100.00
71109;BME280;59614;51.012;-1.648;2023-02-16T03:37:24;101187.31;;;7.63;100.00
71109;BME280;59614;51.012;-1.648;2023-02-16T03:39:50;101182.91;;;7.58;100.00
71109;BME280;59614;51.012;-1.648;2023-02-16T03:42:34;101177.72;;;7.65;100.00
71109;BME280;59614;51.012;-1.648;2023-02-16T03:44:59;101175.13;;;7.69;100.00
71109;BME280;59614;51.012;-1.648;2023-02-16T03:47:25;101173.38;;;7.75;100.00
71109;BME280;59614;51.012;-1.648;2023-02-16T03:49:50;101169.84;;;7.71;100.00
71109;BME280;59614;51.012;-1.648;2023-02-16T03:52:15;101181.25;;;7.75;100.00
71109;BME280;59614;51.012;-1.648;2023-02-16T03:54:41;101177.81;;;7.80;100.00
71109;BME280;59614;51.012;-1.648;2023-02-16T03:57:06;101177.78;;;7.74;100.00
71109;BME280;59614;51.012;-1.648;2023-02-16T03:59:32;101165.50;;;7.73;100.00
71109;BME280;59614;51.012;-1.648;2023-02-16T04:01:58;101168.09;;;7.71;100.00
71109;BME280;59614;51.012;-1.648;2023-02-16T04:04:23;101174.22;;;7.67;100.00
71109;BME280;59614;51.012;-1.648;2023-02-16T04:06:49;101163.75;;;7.70;100.00
71109;BME280;59614;51.012;-1.648;2023-02-16T04:09:14;101156.72;;;7.69;100.00
71109;BME280;59614;51.012;-1.648;2023-02-16T04:11:40;101152.34;;;7.68;100.00
71109;BME280;59614;51.012;-1.648;2023-02-16T04:14:24;101160.28;;;7.79;100.00
71109;BME280;59614;51.012;-1.648;2023-02-16T04:16:49;101153.22;;;7.72;100.00
71109;BME280;59614;51.012;-1.648;2023-02-16T04:19:15;101163.72;;;7.69;100.00
71109;BME280;59614;51.012;-1.648;2023-02-16T04:21:40;101175.09;;;7.68;100.00
71109;BME280;59614;51.012;-1.648;2023-02-16T04:24:07;101178.53;;;7.61;100.00
71109;BME280;59614;51.012;-1.648;2023-02-16T04:26:33;101153.00;;;7.42;100.00
71109;BME280;59614;51.012;-1.648;2023-02-16T04:28:58;101155.63;;;7.42;100.00
71109;BME280;59614;51.012;-1.648;2023-02-16T04:31:24;101149.50;;;7.42;100.00
71109;BME280;59614;51.012;-1.648;2023-02-16T04:33:49;101145.13;;;7.41;100.00
71109;BME280;59614;51.012;-1.648;2023-02-16T04:36:15;101144.31;;;7.51;100.00
71109;BME280;59614;51.012;-1.648;2023-02-16T04:38:40;101146.03;;;7.46;100.00
71109;BME280;59614;51.012;-1.648;2023-02-16T04:41:05;101141.59;;;7.39;100.00
71109;BME280;59614;51.012;-1.648;2023-02-16T04:43:31;101132.78;;;7.34;100.00
71109;BME280;59614;51.012;-1.648;2023-02-16T04:45:57;101117.06;;;7.35;100.00
71109;BME280;59614;51.012;-1.648;2023-02-16T04:48:23;101124.94;;;7.38;100.00
71109;BME280;59614;51.012;-1.648;2023-02-16T04:50:49;101112.75;;;7.42;100.00
71109;BME280;59614;51.012;-1.648;2023-02-16T04:53:15;101116.16;;;7.35;100.00
71109;BME280;59614;51.012;-1.648;2023-02-16T04:55:47;101130.22;;;7.40;100.00
71109;BME280;59614;51.012;-1.648;2023-02-16T04:58:14;101128.56;;;7.51;100.00
71109;BME280;59614;51.012;-1.648;2023-02-16T05:00:40;101136.44;;;7.51;100.00
71109;BME280;59614;51.012;-1.648;2023-02-16T05:03:06;101130.28;;;7.51;100.00
71109;BME280;59614;51.012;-1.648;2023-02-16T05:05:32;101124.94;;;7.37;100.00
71109;BME280;59614;51.012;-1.648;2023-02-16T05:07:59;101125.88;;;7.45;100.00
71109;BME280;59614;51.012;-1.648;2023-02-16T05:10:25;101120.59;;;7.37;100.00
71109;BME280;59614;51.012;-1.648;2023-02-16T05:12:51;101116.16;;;7.32;100.00
71109;BME280;59614;51.012;-1.648;2023-02-16T05:15:35;101130.16;;;7.31;100.00
71109;BME280;59614;51.012;-1.648;2023-02-16T05:18:00;101128.41;;;7.33;100.00
71109;BME280;59614;51.012;-1.648;2023-02-16T05:20:26;101124.03;;;7.35;100.00
71109;BME280;59614;51.012;-1.648;2023-02-16T05:23:11;101124.81;;;7.21;100.00
71109;BME280;59614;51.012;-1.648;2023-02-16T05:25:37;101124.91;;;7.34;100.00
71109;BME280;59614;51.012;-1.648;2023-02-16T05:28:02;101126.59;;;7.25;100.00
71109;BME280;59614;51.012;-1.648;2023-02-16T05:30:28;101135.41;;;7.31;100.00
71109;BME280;59614;51.012;-1.648;2023-02-16T05:32:53;101130.09;;;7.24;100.00
71109;BME280;59614;51.012;-1.648;2023-02-16T05:35:19;101124.78;;;7.18;100.00
71109;BME280;59614;51.012;-1.648;2023-02-16T05:37:44;101133.53;;;7.17;100.00
71109;BME280;59614;51.012;-1.648;2023-02-16T05:40:10;101128.25;;;7.14;100.00
71109;BME280;59614;51.012;-1.648;2023-02-16T05:42:36;101128.28;;;7.17;100.00
71109;BME280;59614;51.012;-1.648;2023-02-16T05:45:02;101121.25;;;7.13;100.00
71109;BME280;59614;51.012;-1.648;2023-02-16T05:47:27;101123.81;;;7.10;100.00
71109;BME280;59614;51.012;-1.648;2023-02-16T05:49:53;101123.94;;;7.21;100.00
71109;BME280;59614;51.012;-1.648;2023-02-16T05:52:18;101123.84;;;7.11;100.00
71109;BME280;59614;51.012;-1.648;2023-02-16T05:54:44;101113.41;;;7.18;100.00
71109;BME280;59614;51.012;-1.648;2023-02-16T05:57:09;101107.34;;;7.26;100.00
71109;BME280;59614;51.012;-1.648;2023-02-16T05:59:35;101115.25;;;7.30;100.00
71109;BME280;59614;51.012;-1.648;2023-02-16T06:02:00;101105.66;;;7.32;100.00
71109;BME280;59614;51.012;-1.648;2023-02-16T06:04:25;101109.03;;;7.21;100.00
71109;BME280;59614;51.012;-1.648;2023-02-16T06:06:53;101110.88;;;7.29;100.00
71109;BME280;59614;51.012;-1.648;2023-02-16T06:09:19;101103.94;;;7.37;100.00
71109;BME280;59614;51.012;-1.648;2023-02-16T06:11:44;101096.94;;;7.39;100.00
71109;BME280;59614;51.012;-1.648;2023-02-16T06:14:15;101101.31;;;7.35;100.00
71109;BME280;59614;51.012;-1.648;2023-02-16T06:16:44;101102.25;;;7.42;100.00
71109;BME280;59614;51.012;-1.648;2023-02-16T06:19:10;101098.88;;;7.62;100.00
71109;BME280;59614;51.012;-1.648;2023-02-16T06:21:37;101102.31;;;7.57;100.00
71109;BME280;59614;51.012;-1.648;2023-02-16T06:24:03;101092.72;;;7.66;100.00
71109;BME280;59614;51.012;-1.648;2023-02-16T06:26:29;101100.69;;;7.72;100.00
71109;BME280;59614;51.012;-1.648;2023-02-16T06:28:54;101094.59;;;7.76;100.00
71109;BME280;59614;51.012;-1.648;2023-02-16T06:31:20;101087.63;;;7.89;100.00
71109;BME280;59614;51.012;-1.648;2023-02-16T06:33:46;101086.72;;;7.82;100.00
71109;BME280;59614;51.012;-1.648;2023-02-16T06:36:12;101087.69;;;7.98;100.00
71109;BME280;59614;51.012;-1.648;2023-02-16T06:38:38;101088.59;;;8.08;100.00
71109;BME280;59614;51.012;-1.648;2023-02-16T06:41:04;101081.59;;;8.09;100.00
71109;BME280;59614;51.012;-1.648;2023-02-16T06:43:30;101085.03;;;8.00;100.00
71109;BME280;59614;51.012;-1.648;2023-02-16T06:45:55;101078.97;;;8.10;100.00
71109;BME280;59614;51.012;-1.648;2023-02-16T06:48:21;101075.44;;;8.07;100.00
71109;BME280;59614;51.012;-1.648;2023-02-16T06:50:46;101079.84;;;8.11;100.00
71109;BME280;59614;51.012;-1.648;2023-02-16T06:53:12;101064.06;;;8.12;100.00
71109;BME280;59614;51.012;-1.648;2023-02-16T06:55:37;101068.47;;;8.15;100.00
71109;BME280;59614;51.012;-1.648;2023-02-16T06:58:04;101080.75;;;8.16;100.00
71109;BME280;59614;51.012;-1.648;2023-02-16T07:00:30;101081.63;;;8.23;100.00
71109;BME280;59614;51.012;-1.648;2023-02-16T07:02:56;101078.16;;;8.21;100.00
71109;BME280;59614;51.012;-1.648;2023-02-16T07:05:21;101069.41;;;8.28;100.00
71109;BME280;59614;51.012;-1.648;2023-02-16T07:07:47;101072.88;;;8.17;100.00
71109;BME280;59614;51.012;-1.648;2023-02-16T07:10:12;101076.38;;;8.23;100.00
71109;BME280;59614;51.012;-1.648;2023-02-16T07:12:39;101085.19;;;8.31;100.00
71109;BME280;59614;51.012;-1.648;2023-02-16T07:15:04;101087.84;;;8.40;100.00
71109;BME280;59614;51.012;-1.648;2023-02-16T07:17:31;101077.28;;;8.34;100.00
71109;BME280;59614;51.012;-1.648;2023-02-16T07:19:56;101066.81;;;8.39;100.00
71109;BME280;59614;51.012;-1.648;2023-02-16T07:22:22;101073.81;;;8.38;100.00
71109;BME280;59614;51.012;-1.648;2023-02-16T07:24:47;101087.03;;;8.49;100.00
71109;BME280;59614;51.012;-1.648;2023-02-16T07:27:13;101081.75;;;8.47;100.00
71109;BME280;59614;51.012;-1.648;2023-02-16T07:29:38;101079.09;;;8.41;100.00
71109;BME280;59614;51.012;-1.648;2023-02-16T07:32:04;101087.03;;;8.49;100.00
71109;BME280;59614;51.012;-1.648;2023-02-16T07:34:29;101075.63;;;8.50;100.00
71109;BME280;59614;51.012;-1.648;2023-02-16T07:36:55;101079.13;;;8.52;100.00
71109;BME280;59614;51.012;-1.648;2023-02-16T07:39:21;101086.19;;;8.59;100.00
71109;BME280;59614;51.012;-1.648;2023-02-16T07:41:46;101087.03;;;8.57;100.00
71109;BME280;59614;51.012;-1.648;2023-02-16T07:44:12;101077.34;;;8.45;100.00
71109;BME280;59614;51.012;-1.648;2023-02-16T07:46:37;101076.53;;;8.60;100.00
71109;BME280;59614;51.012;-1.648;2023-02-16T07:49:03;101076.53;;;8.55;100.00
71109;BME280;59614;51.012;-1.648;2023-02-16T07:51:30;101078.28;;;8.62;100.00
71109;BME280;59614;51.012;-1.648;2023-02-16T07:53:57;101087.94;;;8.62;100.00
71109;BME280;59614;51.012;-1.648;2023-02-16T07:56:26;101082.66;;;8.63;100.00
71109;BME280;59614;51.012;-1.648;2023-02-16T07:58:52;101102.00;;;8.69;100.00
71109;BME280;59614;51.012;-1.648;2023-02-16T08:01:18;101097.59;;;8.72;100.00
71109;BME280;59614;51.012;-1.648;2023-02-16T08:03:44;101086.22;;;8.73;100.00
71109;BME280;59614;51.012;-1.648;2023-02-16T08:06:10;101083.56;;;8.70;100.00
71109;BME280;59614;51.012;-1.648;2023-02-16T08:08:35;101081.81;;;8.71;100.00
71109;BME280;59614;51.012;-1.648;2023-02-16T08:11:13;101085.31;;;8.68;100.00
71109;BME280;59614;51.012;-1.648;2023-02-16T08:13:39;101094.13;;;8.86;100.00
71109;BME280;59614;51.012;-1.648;2023-02-16T08:16:16;101087.06;;;8.78;100.00
71109;BME280;59614;51.012;-1.648;2023-02-16T08:18:42;101095.00;;;8.88;100.00
71109;BME280;59614;51.012;-1.648;2023-02-16T08:21:12;101081.81;;;8.81;100.00
71109;BME280;59614;51.012;-1.648;2023-02-16T08:26:20;101086.22;;;8.84;100.00
71109;BME280;59614;51.012;-1.648;2023-02-16T08:28:47;101091.53;;;9.06;100.00
71109;BME280;59614;51.012;-1.648;2023-02-16T08:31:23;101081.81;;;8.72;100.00
71109;BME280;59614;51.012;-1.648;2023-02-16T08:33:50;101079.22;;;8.80;100.00
71109;BME280;59614;51.012;-1.648;2023-02-16T08:36:25;101082.69;;;8.80;100.00
71109;BME280;59614;51.012;-1.648;2023-02-16T08:38:54;101076.56;;;8.85;100.00
71109;BME280;59614;51.012;-1.648;2023-02-16T08:41:22;101081.84;;;8.99;100.00
71109;BME280;59614;51.012;-1.648;2023-02-16T08:43:50;101081.88;;;9.00;100.00
71109;BME280;59614;51.012;-1.648;2023-02-16T08:46:16;101067.81;;;9.07;100.00
71109;BME280;59614;51.012;-1.648;2023-02-16T08:48:42;101090.66;;;9.11;100.00
71109;BME280;59614;51.012;-1.648;2023-02-16T08:51:15;101092.38;;;9.12;100.00
71109;BME280;59614;51.012;-1.648;2023-02-16T08:53:42;101095.00;;;9.08;100.00
71109;BME280;59614;51.012;-1.648;2023-02-16T08:56:08;101087.09;;;9.12;100.00
71109;BME280;59614;51.012;-1.648;2023-02-16T08:58:35;101084.50;;;9.22;100.00
71109;BME280;59614;51.012;-1.648;2023-02-16T09:01:05;101097.66;;;9.26;100.00
71109;BME280;59614;51.012;-1.648;2023-02-16T09:03:33;101087.09;;;9.25;100.00
71109;BME280;59614;51.012;-1.648;2023-02-16T09:06:02;101095.03;;;9.34;100.00
71109;BME280;59614;51.012;-1.648;2023-02-16T09:08:29;101095.91;;;9.27;100.00
71109;BME280;59614;51.012;-1.648;2023-02-16T09:11:00;101085.34;;;9.44;100.00
71109;BME280;59614;51.012;-1.648;2023-02-16T09:13:25;101082.72;;;9.27;100.00
71109;BME280;59614;51.012;-1.648;2023-02-16T09:15:51;101092.38;;;9.37;100.00
71109;BME280;59614;51.012;-1.648;2023-02-16T09:18:17;101092.38;;;9.47;100.00
71109;BME280;59614;51.012;-1.648;2023-02-16T09:20:43;101084.47;;;9.45;100.00
71109;BME280;59614;51.012;-1.648;2023-02-16T09:23:09;101084.47;;;9.47;100.00
71109;BME280;59614;51.012;-1.648;2023-02-16T09:25:38;101077.44;;;9.44;100.00
71109;BME280;59614;51.012;-1.648;2023-02-16T09:28:05;101080.06;;;9.55;100.00
71109;BME280;59614;51.012;-1.648;2023-02-16T09:30:31;101088.88;;;9.45;100.00
71109;BME280;59614;51.012;-1.648;2023-02-16T09:32:58;101082.72;;;9.39;100.00
71109;BME280;59614;51.012;-1.648;2023-02-16T09:35:24;101075.66;;;9.57;100.00
71109;BME280;59614;51.012;-1.648;2023-02-16T09:37:50;101076.56;;;9.56;100.00
71109;BME280;59614;51.012;-1.648;2023-02-16T09:40:16;101073.06;;;9.54;100.00
71109;BME280;59614;51.012;-1.648;2023-02-16T09:45:41;101055.47;;;9.53;100.00
71109;BME280;59614;51.012;-1.648;2023-02-16T09:48:36;101078.31;;;9.58;100.00
71109;BME280;59614;51.012;-1.648;2023-02-16T09:51:04;101084.41;;;9.68;100.00
71109;BME280;59614;51.012;-1.648;2023-02-16T09:53:35;101087.06;;;9.71;100.00
71109;BME280;59614;51.012;-1.648;2023-02-16T09:58:54;101094.94;;;9.90;100.00
71109;BME280;59614;51.012;-1.648;2023-02-16T10:01:40;101101.06;;;9.94;100.00
71109;BME280;59614;51.012;-1.648;2023-02-16T10:04:31;101086.13;;;9.96;100.00
71109;BME280;59614;51.012;-1.648;2023-02-16T10:07:21;101085.22;;;10.03;100.00
71109;BME280;59614;51.012;-1.648;2023-02-16T10:09:52;101076.44;;;9.93;100.00
71109;BME280;59614;51.012;-1.648;2023-02-16T10:12:24;101081.69;;;10.05;100.00
71109;BME280;59614;51.012;-1.648;2023-02-16T10:14:54;101078.16;;;10.07;100.00
71109;BME280;59614;51.012;-1.648;2023-02-16T10:17:43;101079.94;;;9.97;100.00
71109;BME280;59614;51.012;-1.648;2023-02-16T10:25:54;101094.00;;;10.13;100.00
71109;BME280;59614;51.012;-1.648;2023-02-16T10:31:17;101086.91;;;10.18;100.00
71109;BME280;59614;51.012;-1.648;2023-02-16T10:34:06;101088.63;;;10.39;100.00
71109;BME280;59614;51.012;-1.648;2023-02-16T10:47:36;101108.84;;;10.42;100.00
71109;BME280;59614;51.012;-1.648;2023-02-16T10:50:04;101111.47;;;10.42;100.00
71109;BME280;59614;51.012;-1.648;2023-02-16T10:52:35;101106.22;;;10.32;100.00
71109;BME280;59614;51.012;-1.648;2023-02-16T10:55:03;101100.91;;;10.31;100.00
71109;BME280;59614;51.012;-1.648;2023-02-16T10:57:31;101100.00;;;10.47;100.00
71109;BME280;59614;51.012;-1.648;2023-02-16T11:00:00;101092.06;;;10.49;100.00
71109;BME280;59614;51.012;-1.648;2023-02-16T11:02:41;101095.50;;;10.63;100.00
71109;BME280;59614;51.012;-1.648;2023-02-16T11:07:56;101100.84;;;10.57;100.00
71109;BME280;59614;51.012;-1.648;2023-02-16T11:10:38;101103.44;;;10.66;100.00
71109;BME280;59614;51.012;-1.648;2023-02-16T11:13:06;101116.66;;;10.60;100.00
71109;BME280;59614;51.012;-1.648;2023-02-16T11:15:41;101111.44;;;10.53;100.00
71109;BME280;59614;51.012;-1.648;2023-02-16T11:18:24;101107.88;;;10.58;100.00
71109;BME280;59614;51.012;-1.648;2023-02-16T11:20:54;101120.16;;;10.59;100.00
71109;BME280;59614;51.012;-1.648;2023-02-16T11:25:57;101116.75;;;10.39;100.00
71109;BME280;59614;51.012;-1.648;2023-02-16T11:28:44;101120.22;;;10.50;100.00
71109;BME280;59614;51.012;-1.648;2023-02-16T11:34:03;101130.72;;;10.59;100.00
71109;BME280;59614;51.012;-1.648;2023-02-16T11:36:37;101139.56;;;10.55;100.00
71109;BME280;59614;51.012;-1.648;2023-02-16T11:41:47;101140.44;;;10.56;100.00
71109;BME280;59614;51.012;-1.648;2023-02-16T11:46:48;101134.25;;;10.61;100.00
71109;BME280;59614;51.012;-1.648;2023-02-16T11:51:56;101127.94;;;10.87;100.00
71109;BME280;59614;51.012;-1.648;2023-02-16T11:54:22;101119.88;;;11.06;100.00
71109;BME280;59614;51.012;-1.648;2023-02-16T11:57:05;101113.72;;;11.07;100.00
71109;BME280;59614;51.012;-1.648;2023-02-16T11:59:38;101111.97;;;11.07;100.00
71109;BME280;59614;51.012;-1.648;2023-02-16T12:08:14;101101.22;;;11.29;100.00
71109;BME280;59614;51.012;-1.648;2023-02-16T12:19:18;101073.69;;;11.50;100.00
71109;BME280;59614;51.012;-1.648;2023-02-16T12:21:55;101078.88;;;11.64;100.00
71109;BME280;59614;51.012;-1.648;2023-02-16T12:32:32;101062.31;;;12.25;100.00
71109;BME280;59614;51.012;-1.648;2023-02-16T12:43:00;101043.88;;;12.79;100.00
71109;BME280;59614;51.012;-1.648;2023-02-16T12:45:31;101040.41;;;12.74;100.00
71109;BME280;59614;51.012;-1.648;2023-02-16T12:48:29;101038.03;;;12.57;100.00
71109;BME280;59614;51.012;-1.648;2023-02-16T12:50:51;101038.53;;;12.82;100.00
71109;BME280;59614;51.012;-1.648;2023-02-16T12:55:53;101042.91;;;13.85;100.00
71109;BME280;59614;51.012;-1.648;2023-02-16T12:58:32;101036.34;;;13.59;100.00
71109;BME280;59614;51.012;-1.648;2023-02-16T13:01:09;101043.94;;;13.29;100.00
71109;BME280;59614;51.012;-1.648;2023-02-16T13:03:44;101038.03;;;13.13;100.00
71109;BME280;59614;51.012;-1.648;2023-02-16T13:06:23;101038.53;;;12.82;100.00
71109;BME280;59614;51.012;-1.648;2023-02-16T13:11:46;101053.97;;;12.54;100.00
71109;BME280;59614;51.012;-1.648;2023-02-16T13:14:19;101047.06;;;12.44;100.00
71109;BME280;59614;51.012;-1.648;2023-02-16T13:19:18;101048.34;;;12.12;100.00
71109;BME280;59614;51.012;-1.648;2023-02-16T13:24:22;101044.09;;;12.00;100.00
71109;BME280;59614;51.012;-1.648;2023-02-16T13:32:47;101044.72;;;12.20;100.00
71109;BME280;59614;51.012;-1.648;2023-02-16T13:35:22;101048.34;;;12.13;100.00
71109;BME280;59614;51.012;-1.648;2023-02-16T13:38:00;101039.38;;;12.27;100.00
71109;BME280;59614;51.012;-1.648;2023-02-16T13:43:16;101032.97;;;12.40;100.00
71109;BME280;59614;51.012;-1.648;2023-02-16T13:45:45;101033.38;;;12.73;100.00
71109;BME280;59614;51.012;-1.648;2023-02-16T13:48:26;101038.84;;;12.62;100.00
71109;BME280;59614;51.012;-1.648;2023-02-16T13:51:01;101050.31;;;12.64;100.00
71109;BME280;59614;51.012;-1.648;2023-02-16T13:53:35;101042.66;;;12.41;100.00
71109;BME280;59614;51.012;-1.648;2023-02-16T13:56:38;101049.06;;;12.26;100.00
71109;BME280;59614;51.012;-1.648;2023-02-16T14:01:43;101041.94;;;12.31;100.00
71109;BME280;59614;51.012;-1.648;2023-02-16T14:04:13;101045.72;;;12.13;100.00
71109;BME280;59614;51.012;-1.648;2023-02-16T14:12:04;101034.16;;;12.17;100.00
71109;BME280;59614;51.012;-1.648;2023-02-16T14:17:28;101031.59;;;12.13;100.00
71109;BME280;59614;51.012;-1.648;2023-02-16T14:20:29;101033.50;;;12.03;100.00
71109;BME280;59614;51.012;-1.648;2023-02-16T14:22:56;101026.38;;;12.07;100.00
71109;BME280;59614;51.012;-1.648;2023-02-16T14:30:41;101024.31;;;12.30;100.00
71109;BME280;59614;51.012;-1.648;2023-02-16T14:35:43;101017.13;;;12.39;100.00
71109;BME280;59614;51.012;-1.648;2023-02-16T14:38:30;101023.41;;;12.30;100.00
71109;BME280;59614;51.012;-1.648;2023-02-16T14:40:59;101032.19;;;12.33;100.00
71109;BME280;59614;51.012;-1.648;2023-02-16T14:49:32;101025.28;;;12.25;100.00
71109;BME280;59614;51.012;-1.648;2023-02-16T14:55:02;101030.41;;;12.37;100.00
71109;BME280;59614;51.012;-1.648;2023-02-16T15:00:38;101023.28;;;12.39;100.00
71109;BME280;59614;51.012;-1.648;2023-02-16T15:03:20;101023.22;;;12.45;100.00
71109;BME280;59614;51.012;-1.648;2023-02-16T15:05:58;101025.91;;;12.42;100.00
71109;BME280;59614;51.012;-1.648;2023-02-16T15:08:27;101032.16;;;12.38;100.00
71109;BME280;59614;51.012;-1.648;2023-02-16T15:11:23;101025.13;;;12.34;100.00
71109;BME280;59614;51.012;-1.648;2023-02-16T15:13:47;101021.47;;;12.44;100.00
71109;BME280;59614;51.012;-1.648;2023-02-16T15:16:19;101032.94;;;12.43;100.00
71109;BME280;59614;51.012;-1.648;2023-02-16T15:18:45;101026.81;;;12.40;100.00
71109;BME280;59614;51.012;-1.648;2023-02-16T15:21:31;101032.25;;;12.29;100.00
71109;BME280;59614;51.012;-1.648;2023-02-16T15:23:59;101033.22;;;12.25;100.00
71109;BME280;59614;51.012;-1.648;2023-02-16T15:26:33;101044.66;;;12.25;100.00
71109;BME280;59614;51.012;-1.648;2023-02-16T15:32:00;101043.00;;;12.18;100.00
71109;BME280;59614;51.012;-1.648;2023-02-16T15:34:29;101034.00;;;12.30;100.00
71109;BME280;59614;51.012;-1.648;2023-02-16T15:36:55;101034.09;;;12.24;100.00